Flight Track Log - Related Links

Times and Time Zones

All times are in EDT time to prevent confusion due to time zone crossing. See the MSR785 flight status page for this flight to view local times or setup timezone preferences in your user account.

Time Position Orientation Groundspeed Altitude Reporting Facility
EDT Latitude Longitude Course Direction KTS MPH feet Rate Location/Type
Sun 05:15:00 AM 30.9320 30.7599 326° Northwest  Level Estimated
Sun 05:16:00 AM 31.0330 30.6784 325° Northwest  Level Estimated
Sun 05:17:00 AM 31.1340 30.5968 325° Northwest  Level Estimated
Sun 05:18:00 AM 31.2349 30.5150 325° Northwest  Level Estimated
Sun 05:19:00 AM 31.3358 30.4330 325° Northwest  Level Estimated
Sun 05:20:00 AM 31.4366 30.3508 325° Northwest  Level Estimated
Sun 05:21:00 AM 31.5374 30.2685 325° Northwest  Level Estimated
Sun 05:22:00 AM 31.6381 30.1860 325° Northwest  Level Estimated
Sun 05:23:00 AM 31.7388 30.1033 325° Northwest  Level Estimated
Sun 05:24:00 AM 31.8394 30.0204 325° Northwest  Level Estimated
Sun 05:25:00 AM 31.9399 29.9373 325° Northwest  Level Estimated
Sun 05:26:00 AM 32.0405 29.8541 325° Northwest  Level Estimated
Sun 05:27:00 AM 32.1409 29.7707 325° Northwest  Level Estimated
Sun 05:28:00 AM 32.2413 29.6870 325° Northwest  Level Estimated
Sun 05:29:00 AM 32.3416 29.6033 325° Northwest  Level Estimated
Sun 05:30:00 AM 32.4419 29.5193 325° Northwest  Level Estimated
Sun 05:31:00 AM 32.5421 29.4351 325° Northwest  Level Estimated
Sun 05:32:00 AM 32.6423 29.3507 325° Northwest  Level Estimated
Sun 05:33:00 AM 32.7424 29.2662 325° Northwest  Level Estimated
Sun 05:34:00 AM 32.8425 29.1815 325° Northwest  Level Estimated
Sun 05:35:00 AM 32.9425 29.0965 325° Northwest  Level Estimated
Sun 05:36:00 AM 33.0424 29.0114 324° Northwest  Level Estimated
Sun 05:37:00 AM 33.1423 28.9261 324° Northwest  Level Estimated
Sun 05:38:00 AM 33.2421 28.8406 324° Northwest  Level Estimated
Sun 05:39:00 AM 33.3419 28.7549 324° Northwest  Level Estimated
Sun 05:40:00 AM 33.4416 28.6690 324° Northwest  Level Estimated
Sun 05:41:00 AM 33.5413 28.5829 324° Northwest  Level Estimated
Sun 05:42:00 AM 33.6409 28.4966 324° Northwest  Level Estimated
Sun 05:43:00 AM 33.7404 28.4101 324° Northwest  Level Estimated
Sun 05:44:00 AM 33.8398 28.3234 324° Northwest  Level Estimated
Sun 05:45:00 AM 33.9393 28.2365 324° Northwest  Level Estimated
Sun 05:46:00 AM 34.0386 28.1494 324° Northwest  Level Estimated
Sun 05:47:00 AM 34.1379 28.0621 324° Northwest  Level Estimated
Sun 05:47:05 AM 33.8626 28.2258 334° Northwest 480 552 40,000  Level FlightAware ADS-B
Sun 05:47:43 AM 33.9397 28.1825 335° Northwest 482 555 40,000  Level FlightAware ADS-B
Sun 05:48:15 AM 33.9991 28.1488 335° Northwest 482 555 40,000  Level FlightAware ADS-B
Sun 05:48:25 AM 34.0206 28.1366 335° Northwest 483 556 40,000 -16 Level FlightAware ADS-B
Sun 05:51:00 AM 34.2771 27.9109 324° Northwest  Level Estimated
Sun 05:52:00 AM 34.3763 27.8231 324° Northwest  Level Estimated
Sun 05:53:00 AM 34.4754 27.7352 324° Northwest  Level Estimated
Sun 05:54:00 AM 34.5745 27.6471 324° Northwest  Level Estimated
Sun 05:55:00 AM 34.6735 27.5587 324° Northwest  Level Estimated
Sun 05:56:00 AM 34.7724 27.4701 324° Northwest  Level Estimated
Sun 05:57:00 AM 34.8713 27.3813 324° Northwest  Level Estimated
Sun 05:58:00 AM 34.9701 27.2924 324° Northwest  Level Estimated
Sun 05:59:00 AM 35.0688 27.2031 324° Northwest  Level Estimated
Sun 06:00:00 AM 35.1674 27.1137 323° Northwest  Level Estimated
Sun 06:01:00 AM 35.2660 27.0241 323° Northwest  Level Estimated
Sun 06:02:00 AM 35.3646 26.9342 323° Northwest  Level Estimated
Sun 06:03:00 AM 35.4631 26.8441 323° Northwest  Level Estimated
Sun 06:04:00 AM 35.5615 26.7538 323° Northwest  Level Estimated
Sun 06:05:00 AM 35.6598 26.6633 323° Northwest  Level Estimated
Sun 06:06:00 AM 35.7580 26.5725 323° Northwest  Level Estimated
Sun 06:07:00 AM 35.8562 26.4816 323° Northwest  Level Estimated
Sun 06:08:00 AM 35.9544 26.3904 323° Northwest  Level Estimated
Sun 06:09:00 AM 36.0524 26.2990 323° Northwest  Level Estimated
Sun 06:10:00 AM 36.1504 26.2073 323° Northwest  Level Estimated
Sun 06:11:00 AM 36.2483 26.1154 323° Northwest  Level Estimated
Sun 06:12:00 AM 36.3462 26.0233 323° Northwest  Level Estimated
Sun 06:13:00 AM 36.4440 25.9310 323° Northwest  Level Estimated
Sun 06:14:00 AM 36.5416 25.8384 323° Northwest  Level Estimated
Sun 06:15:00 AM 36.6393 25.7456 323° Northwest  Level Estimated
Sun 06:16:00 AM 36.7368 25.6525 323° Northwest  Level Estimated
Sun 06:17:00 AM 36.8343 25.5592 323° Northwest  Level Estimated
Sun 06:18:00 AM 36.9318 25.4657 323° Northwest  Level Estimated
Sun 06:19:00 AM 37.0291 25.3720 322° Northwest  Level Estimated
Sun 06:20:00 AM 37.1264 25.2780 322° Northwest  Level Estimated
Sun 06:21:00 AM 37.2235 25.1837 322° Northwest  Level Estimated
Sun 06:22:00 AM 37.3207 25.0892 322° Northwest  Level Estimated
Sun 06:23:00 AM 37.4177 24.9945 322° Northwest  Level Estimated
Sun 06:24:00 AM 37.5147 24.8995 322° Northwest  Level Estimated
Sun 06:25:00 AM 37.6116 24.8043 322° Northwest  Level Estimated
Sun 06:26:00 AM 37.7084 24.7088 322° Northwest  Level Estimated
Sun 06:27:00 AM 37.8051 24.6131 322° Northwest  Level Estimated
Sun 06:28:00 AM 37.9018 24.5171 322° Northwest  Level Estimated
Sun 06:29:00 AM 37.9984 24.4209 322° Northwest  Level Estimated
Sun 06:30:00 AM 38.0949 24.3244 322° Northwest  Level Estimated
Sun 06:31:00 AM 38.1913 24.2277 322° Northwest  Level Estimated
Sun 06:32:00 AM 38.2876 24.1307 322° Northwest  Level Estimated
Sun 06:33:00 AM 38.3839 24.0334 322° Northwest  Level Estimated
Sun 06:34:00 AM 38.4801 23.9359 322° Northwest  Level Estimated
Sun 06:35:00 AM 38.5762 23.8382 322° Northwest  Level Estimated
Sun 06:36:00 AM 38.6722 23.7401 321° Northwest  Level Estimated
Sun 06:37:00 AM 38.7681 23.6418 321° Northwest  Level Estimated
Sun 06:38:00 AM 38.8640 23.5433 321° Northwest  Level Estimated
Sun 06:39:00 AM 38.9598 23.4445 321° Northwest  Level Estimated
Sun 06:40:00 AM 39.0555 23.3454 321° Northwest  Level Estimated
Sun 06:41:00 AM 39.1511 23.2460 321° Northwest  Level Estimated
Sun 06:42:00 AM 39.2466 23.1464 321° Northwest  Level Estimated
Sun 06:43:00 AM 39.3420 23.0465 321° Northwest  Level Estimated
Sun 06:44:00 AM 39.4374 22.9463 321° Northwest  Level Estimated
Sun 06:45:00 AM 39.5326 22.8459 321° Northwest  Level Estimated
Sun 06:46:00 AM 39.6278 22.7451 321° Northwest  Level Estimated
Sun 06:47:00 AM 39.7229 22.6441 321° Northwest  Level Estimated
Sun 06:48:00 AM 39.8179 22.5429 321° Northwest  Level Estimated
Sun 06:49:00 AM 39.9128 22.4413 321° Northwest  Level Estimated
Sun 06:50:00 AM 40.0076 22.3395 321° Northwest  Level Estimated
Sun 06:51:00 AM 40.1024 22.2373 321° Northwest  Level Estimated
Sun 06:52:00 AM 40.1970 22.1349 320° Northwest  Level Estimated
Sun 06:53:00 AM 40.2916 22.0322 320° Northwest  Level Estimated
Sun 06:54:00 AM 40.3861 21.9292 320° Northwest  Level Estimated
Sun 06:55:00 AM 40.4804 21.8260 320° Northwest  Level Estimated
Sun 06:56:00 AM 40.5747 21.7224 320° Northwest  Level Estimated
Sun 06:57:00 AM 40.6689 21.6185 320° Northwest  Level Estimated
Sun 06:58:00 AM 40.7630 21.5144 320° Northwest  Level Estimated
Sun 06:59:00 AM 40.8570 21.4100 320° Northwest  Level Estimated
Sun 07:00:00 AM 40.9509 21.3052 320° Northwest  Level Estimated
Sun 07:01:00 AM 41.0447 21.2002 320° Northwest  Level Estimated
Sun 07:02:00 AM 41.1384 21.0948 320° Northwest  Level Estimated
Sun 07:03:00 AM 41.2320 20.9892 320° Northwest  Level Estimated
Sun 07:04:00 AM 41.3256 20.8832 320° Northwest  Level Estimated
Sun 07:05:00 AM 41.4190 20.7770 320° Northwest  Level Estimated
Sun 07:06:00 AM 41.5123 20.6705 319° Northwest  Level Estimated
Sun 07:07:00 AM 41.6055 20.5636 319° Northwest  Level Estimated
Sun 07:08:00 AM 41.6987 20.4564 319° Northwest  Level Estimated
Sun 07:09:00 AM 41.7917 20.3489 319° Northwest  Level Estimated
Sun 07:10:00 AM 41.8846 20.2411 319° Northwest  Level Estimated
Sun 07:11:00 AM 41.9775 20.1330 319° Northwest  Level Estimated
Sun 07:12:00 AM 42.0702 20.0246 319° Northwest  Level Estimated
Sun 07:13:00 AM 42.1628 19.9159 319° Northwest  Level Estimated
Sun 07:14:00 AM 42.2553 19.8068 319° Northwest  Level Estimated
Sun 07:15:00 AM 42.3478 19.6974 319° Northwest  Level Estimated
Sun 07:16:00 AM 42.4401 19.5877 319° Northwest  Level Estimated
Sun 07:17:00 AM 42.5323 19.4777 319° Northwest  Level Estimated
Sun 07:18:00 AM 42.6244 19.3674 319° Northwest  Level Estimated
Sun 07:19:00 AM 42.7164 19.2567 319° Northwest  Level Estimated
Sun 07:20:00 AM 42.8083 19.1457 318° Northwest  Level Estimated
Sun 07:21:00 AM 42.9000 19.0343 318° Northwest  Level Estimated
Sun 07:22:00 AM 42.9917 18.9227 318° Northwest  Level Estimated
Sun 07:23:00 AM 43.0833 18.8107 318° Northwest  Level Estimated
Sun 07:24:00 AM 43.1747 18.6983 318° Northwest  Level Estimated
Sun 07:25:00 AM 43.2661 18.5857 318° Northwest  Level Estimated
Sun 07:26:00 AM 43.3573 18.4727 318° Northwest  Level Estimated
Sun 07:27:00 AM 43.4484 18.3593 318° Northwest  Level Estimated
Sun 07:28:00 AM 43.5394 18.2456 318° Northwest  Level Estimated
Sun 07:29:00 AM 43.6303 18.1316 318° Northwest  Level Estimated
Sun 07:30:00 AM 43.7211 18.0172 318° Northwest  Level Estimated
Sun 07:31:00 AM 43.8118 17.9025 318° Northwest  Level Estimated
Sun 07:32:00 AM 43.9023 17.7874 318° Northwest  Level Estimated
Sun 07:33:00 AM 43.9928 17.6720 317° Northwest  Level Estimated
Sun 07:34:00 AM 44.0831 17.5562 317° Northwest  Level Estimated
Sun 07:35:00 AM 44.1733 17.4401 317° Northwest  Level Estimated
Sun 07:36:00 AM 44.2634 17.3236 317° Northwest  Level Estimated
Sun 07:37:00 AM 44.3534 17.2067 317° Northwest  Level Estimated
Sun 07:38:00 AM 44.4432 17.0895 317° Northwest  Level Estimated
Sun 07:39:00 AM 44.5329 16.9720 317° Northwest  Level Estimated
Sun 07:40:00 AM 44.6225 16.8540 317° Northwest  Level Estimated
Sun 07:41:00 AM 44.7120 16.7357 317° Northwest  Level Estimated
Sun 07:42:00 AM 44.8014 16.6171 317° Northwest  Level Estimated
Sun 07:43:00 AM 44.8906 16.4980 317° Northwest  Level Estimated
Sun 07:44:00 AM 44.9798 16.3786 317° Northwest  Level Estimated
Sun 07:45:00 AM 45.0687 16.2589 316° Northwest  Level Estimated
Sun 07:46:00 AM 45.1576 16.1387 316° Northwest  Level Estimated
Sun 07:47:00 AM 45.2463 16.0182 316° Northwest  Level Estimated
Sun 07:48:00 AM 45.3349 15.8973 316° Northwest  Level Estimated
Sun 07:49:00 AM 45.4234 15.7760 316° Northwest  Level Estimated
Sun 07:50:00 AM 45.5118 15.6544 316° Northwest  Level Estimated
Sun 07:51:00 AM 45.6000 15.5324 316° Northwest  Level Estimated
Sun 07:52:00 AM 45.6881 15.4100 316° Northwest  Level Estimated
Sun 07:52:36 AM 47.1882 15.4326 325° Northwest 461 531 38,000  Level FlightAware ADS-B (EDDM / MUC)
Sun 07:53:09 AM 47.2621 15.3562 325° Northwest 461 531 38,000  Level FlightAware ADS-B (EDDM / MUC)
Sun 07:54:08 AM 47.3747 15.2393 325° Northwest 462 532 38,000  Level FlightAware ADS-B (EDDM / MUC)
Sun 07:54:41 AM 47.4367 15.1747 325° Northwest 461 531 38,000  Level FlightAware ADS-B (EDDM / MUC)
Sun 07:55:22 AM 47.5046 15.0907 312° West 474 545 38,000  Level FlightAware ADS-B (EDDM / MUC)
Sun 07:56:02 AM 47.5583 14.9937 309° West 476 548 38,000  Level FlightAware ADS-B (EDDM / MUC)
Sun 07:56:35 AM 47.5973 14.9223 309° West 477 549 38,000  Level FlightAware ADS-B (EDDM / MUC)
Sun 07:57:05 AM 47.6473 14.8308 309° West 477 549 38,000  Level FlightAware ADS-B (EDDM / MUC)
Sun 07:57:50 AM 47.7063 14.7221 309° West 476 548 38,000  Level FlightAware ADS-B (ETSE)
Sun 07:58:25 AM 47.7579 14.6266 309° West 475 547 38,000  Level FlightAware ADS-B (EDDM / MUC)
Sun 07:58:58 AM 47.7986 14.5512 309° West 476 548 38,000  Level FlightAware ADS-B (EDDM / MUC)
Sun 07:59:31 AM 47.8436 14.4675 309° West 476 548 38,000  Level FlightAware ADS-B (EDDM / MUC)
Sun 08:00:04 AM 47.8919 14.3774 309° West 477 549 38,000  Level FlightAware ADS-B (EDDM / MUC)
Sun 08:00:46 AM 47.9506 14.2672 309° West 478 550 38,000  Level FlightAware ADS-B (EDDM / MUC)
Sun 08:01:29 AM 48.0046 14.1658 308° West 479 551 38,000  Level FlightAware ADS-B (EDDM / MUC)
Sun 08:02:03 AM 48.0559 14.0689 308° West 479 551 38,000  Level FlightAware ADS-B (EDDM / MUC)
Sun 08:02:42 AM 48.1105 13.9650 308° West 478 550 38,000  Level FlightAware ADS-B (ETSE)
Sun 08:03:15 AM 48.1509 13.8883 308° West 477 549 38,000  Level FlightAware ADS-B (EDDM / MUC)
Sun 08:04:02 AM 48.2183 13.7591 308° West 476 548 38,000  Level FlightAware ADS-B (EDDM / MUC)
Sun 08:04:37 AM 48.2655 13.6684 308° West 474 545 38,000  Level FlightAware ADS-B (EDDM / MUC)
Sun 08:05:15 AM 48.3035 13.5951 308° West 474 545 38,000  Level FlightAware ADS-B (EDDM / MUC)
Sun 08:05:46 AM 48.3579 13.4902 308° West 473 544 38,000  Level FlightAware ADS-B (EDDM / MUC)
Sun 08:06:21 AM 48.3881 13.4313 307° West 473 544 38,000  Level FlightAware ADS-B (ETSE)
Sun 08:07:05 AM 48.4458 13.2910 296° West 479 551 38,000  Level FlightAware ADS-B (EDDM / MUC)
Sun 08:07:47 AM 48.4778 13.1805 292° West 480 552 38,000  Level FlightAware ADS-B (EDDM / MUC)
Sun 08:08:28 AM 48.5208 13.0173 292° West 479 551 38,000  Level FlightAware ADS-B (ETSE)
Sun 08:09:03 AM 48.5496 12.9073 292° West 477 549 38,000  Level FlightAware ADS-B (EDDM / MUC)
Sun 08:09:34 AM 48.5709 12.8253 291° West 477 549 38,000  Level FlightAware ADS-B (EDDM / MUC)
Sun 08:10:04 AM 48.5972 12.7217 289° West 478 550 38,000  Level FlightAware ADS-B (EDDM / MUC)
Sun 08:10:35 AM 48.6154 12.6233 284° West 480 552 38,000  Level FlightAware ADS-B (EDDM / MUC)
Sun 08:11:08 AM 48.6326 12.5225 284° West 480 552 38,000  Level FlightAware ADS-B (ETSE)
Sun 08:11:43 AM 48.6518 12.4091 284° West 479 551 38,000  Level FlightAware ADS-B (EDDM / MUC)
Sun 08:12:21 AM 48.6708 12.2960 284° West 480 552 38,000 -532 Level FlightAware ADS-B (EDDM / MUC)
Sun 08:13:02 AM 48.6921 12.1680 284° West 482 555 37,300 -1,000 Descending FlightAware ADS-B (EDDM / MUC)
Sun 08:13:33 AM 48.7123 12.0462 284° West 481 554 36,800 -1,180 Descending FlightAware ADS-B (EDDM / MUC)
Sun 08:14:03 AM 48.7287 11.9462 284° West 483 556 36,100 -1,457 Descending FlightAware ADS-B (EDDM / MUC)
Sun 08:14:43 AM 48.7500 11.8158 284° West 485 558 35,100 -1,500 Descending FlightAware ADS-B (EDDM / MUC)
Sun 08:15:15 AM 48.7676 11.7066 284° West 479 551 34,300 -1,417 Descending FlightAware ADS-B (EDDM / MUC)
Sun 08:15:55 AM 48.7856 11.5945 284° West 467 537 33,400 -1,424 Descending FlightAware ADS-B (EDDM / MUC)
Sun 08:16:14 AM 48.7996 11.5218 294° West 461 531 32,900 -1,529 Descending FlightAware ADS-B (EDDM / MUC)
Sun 08:16:46 AM 48.8339 11.4369 306° West 449 517 32,100 -771 Descending FlightAware ADS-B (EDDM / MUC)
Sun 08:17:24 AM 48.8806 11.3397 306° West 449 517 32,000 -115 Descending FlightAware ADS-B (EDDM / MUC)
Sun 08:17:38 AM 48.8980 11.3035 307° West 465 535 32,000 -125 Level FlightAware ADS-B (ETSE)
Sun 08:18:12 AM 48.9427 11.2139 306° West 462 532 31,900 -1,054 Descending FlightAware ADS-B (EDDM / MUC)
Sun 08:18:52 AM 48.9427 11.2139 308° West 482 555 30,700 -1,807 Descending FlightAware ADS-B (EDDM / MUC)
Sun 08:19:35 AM 49.0538 10.9964 308° West 479 551 29,400 -1,902 Descending FlightAware ADS-B (EDDM / MUC)
Sun 08:20:14 AM 49.1074 10.8902 308° West 479 551 28,100 -1,913 Descending FlightAware ADS-B (EDDM / MUC)
Sun 08:20:44 AM 49.1444 10.8167 308° West 470 541 27,200 -1,946 Descending FlightAware ADS-B (EDDM / MUC)
Sun 08:21:28 AM 49.2036 10.6984 307° West 454 522 25,700 -2,514 Descending FlightAware ADS-B (EDDM / MUC)
Sun 08:21:58 AM 49.2661 10.5733 307° West 445 512 24,100 -1,672 Descending FlightAware ADS-B (KGHG)
Sun 08:22:29 AM 49.2796 10.5463 307° West 441 507 24,000 -87 Descending FlightAware ADS-B (EDDM / MUC)
Sun 08:23:07 AM 49.3154 10.4743 307° West 443 510 24,000 -70 Level FlightAware ADS-B (EDDM / MUC)
Sun 08:23:55 AM 49.3623 10.3795 307° West 435 501 23,900 -595 Descending FlightAware ADS-B (EDDM / MUC)
Sun 08:24:58 AM 49.3986 10.3061 307° West 399 459 22,900 -966 Descending FlightAware ADS-B (EDDM / MUC)
Sun 08:25:53 AM 49.5038 10.0919 307° West 389 448 22,000 -1,165 Descending FlightAware ADS-B (EDDM / MUC)
Sun 08:26:41 AM 49.5709 9.9544 307° West 387 445 20,900 -1,448 Descending FlightAware ADS-B (EDDM / MUC)
Sun 08:27:20 AM 49.5814 9.9327 307° West 384 442 19,900 -1,562 Descending FlightAware ADS-B (EDDM / MUC)
Sun 08:27:54 AM 49.5814 9.9327 307° West 379 436 19,000 -1,615 Descending FlightAware ADS-B (EDDM / MUC)
Sun 08:29:04 AM 49.7187 9.6491 307° West 367 422 17,100 -1,629 Descending FlightAware ADS-B (EDDM / MUC)
Sun 08:31:00 AM 49.8139 9.3123 294° West  Level Estimated
Sun 08:32:00 AM 49.8628 9.1376 294° West  Level Estimated
Sun 08:33:00 AM 49.9114 8.9626 293° West  Level Estimated
Sun 08:34:00 AM 49.9598 8.7872 293° West  Level Estimated
Sun 08:35:00 AM 50.0078 8.6114 293° West  Level Estimated
Sun 08:36:00 AM 50.0264 8.5431 293° West  Level Estimated
Sun 08:37:00 AM 50.0264 8.5431 North  Level Estimated
Sun 08:38:00 AM 50.0264 8.5431 North  Level Estimated
Sun 08:39:00 AM 50.0264 8.5431 North  Level Estimated
Sun 08:40:00 AM 50.0264 8.5431 North  Level Estimated
Sun 08:41:00 AM 50.0264 8.5431 North  Level Estimated
Sun 08:42:00 AM 50.0264 8.5431 North  Level Estimated
Sun 08:43:00 AM 50.0264 8.5431 North  Level Estimated
Sun 08:44:00 AM 50.0264 8.5431 North  Level Estimated
Sun 08:45:00 AM 50.0264 8.5431 North  Level Estimated
Sun 08:46:00 AM 50.0264 8.5431 North  Level Estimated
Sun 08:47:00 AM 50.0264 8.5431 North  Level Estimated
Sun 08:48:00 AM 50.0264 8.5431 North  Level Estimated
Sun 08:49:00 AM 50.0264 8.5431 North  Level Estimated
Sun 08:50:00 AM 50.0264 8.5431 North  Level Estimated
Sun 08:51:00 AM 50.0264 8.5431 North  Level Estimated
Sun 08:52:00 AM 50.0264 8.5431 North  Level Estimated
Sun 08:53:00 AM 50.0264 8.5431 North  Level Estimated
Sun 08:54:00 AM 50.0264 8.5431 North  Level Estimated
Sun 08:55:00 AM 50.0264 8.5431 North  Level Estimated
Sun 08:56:00 AM 50.0264 8.5431 North  Level Estimated
Sun 08:57:00 AM 50.0264 8.5431 North  Level Estimated

Login

Don't have an account? Register now (free) for customized features, flight alerts, and more!